Terminal Aerodrome Forecast
Issued by NWS

Home | Current Version | Previous Version | Text Only | Print | Product List | Glossary On
Versions: 1 2 3 4 5 6 7 8 9 10 11 12 13 14 15 16 17 18 19 20 21 22 23 24 25 26 27 28
000
FTUS41 KBOX 302330
TAFBAF
TAF
KBAF 302330Z 3100/3124 VRB03KT P6SM SCT060 BKN150
     FM310300 VRB03KT P6SM FEW060 BKN200
      TEMPO 3107/3111 4SM BR
     FM311500 27006KT P6SM FEW250
     FM311800 28010KT P6SM SCT250
     FM312200 29006KT P6SM SKC=

USA.gov is the U.S. government's official web portal to all federal, state and local government web resources and services.